Time;durP1;ratioP1;P1;durP2;ratioP2;P2;SDS_P1;SDS_P2;PMS_P1;PMS_P2;Temp;Humidity;BMP_temperature;BMP_pressure;BME280_temperature;BME280_humidity;BME280_pressure;Samples;Min_cycle;Max_cycle;Signal;HPM_P1;HPM_P2
2023/05/24 00:01:41;;;;;;;6.03;3.67;;;;;;;;;;5063518;28;20485;-79
2023/05/24 00:04:07;;;;;;;5.10;3.70;;;;;;;;;;5070256;28;20036;-79
2023/05/24 00:06:36;;;;;;;7.25;3.55;;;;;;;;;;5063128;28;20031;-79
2023/05/24 00:09:02;;;;;;;6.28;3.53;;;;;;;;;;5066594;28;20043;-80
2023/05/24 00:11:28;;;;;;;6.32;3.53;;;;;;;;;;5061400;28;20041;-79
2023/05/24 00:13:54;;;;;;;5.43;3.40;;;;;;;;;;5064511;28;20069;-78
2023/05/24 00:16:20;;;;;;;8.73;3.90;;;;;;;;;;5071084;28;20077;-79
2023/05/24 00:18:46;;;;;;;5.75;3.65;;;;;;;;;;5061432;28;20028;-80
2023/05/24 00:21:13;;;;;;;6.85;3.28;;;;;;;;;;5068117;28;20039;-78
2023/05/24 00:23:40;;;;;;;6.72;3.70;;;;;;;;;;5057474;28;20147;-78
2023/05/24 00:26:06;;;;;;;10.05;4.20;;;;;;;;;;5066581;28;20032;-78
2023/05/24 00:28:32;;;;;;;5.93;3.22;;;;;;;;;;5070182;28;20048;-78
2023/05/24 00:30:58;;;;;;;7.05;3.72;;;;;;;;;;5059667;28;20037;-78
2023/05/24 00:33:25;;;;;;;6.40;3.55;;;;;;;;;;5070494;28;20024;-78
2023/05/24 00:35:55;;;;;;;5.28;3.58;;;;;;;;;;5070800;28;20021;-80
2023/05/24 00:38:21;;;;;;;5.15;3.90;;;;;;;;;;5072971;28;20021;-79
2023/05/24 00:40:47;;;;;;;8.82;4.03;;;;;;;;;;5071890;28;20035;-80
2023/05/24 00:43:14;;;;;;;5.95;3.20;;;;;;;;;;5073582;28;20052;-81
2023/05/24 00:45:40;;;;;;;5.22;3.60;;;;;;;;;;5061136;28;20020;-80
2023/05/24 00:48:06;;;;;;;7.47;3.78;;;;;;;;;;5071734;28;20033;-80
2023/05/24 00:50:32;;;;;;;5.53;3.63;;;;;;;;;;5055178;28;20401;-80
2023/05/24 00:53:00;;;;;;;6.00;3.60;;;;;;;;;;5063489;28;20025;-80
2023/05/24 00:55:26;;;;;;;7.68;3.75;;;;;;;;;;5069413;28;20024;-80
2023/05/24 00:57:53;;;;;;;7.65;4.60;;;;;;;;;;5061933;28;20535;-80
2023/05/24 01:00:19;;;;;;;10.13;3.95;;;;;;;;;;5059750;28;20021;-80
2023/05/24 01:02:47;;;;;;;9.13;3.70;;;;;;;;;;5072794;28;20028;-79
2023/05/24 01:05:13;;;;;;;11.75;3.95;;;;;;;;;;5073035;28;20382;-79
2023/05/24 01:07:52;;;;;;;7.93;4.05;;;;;;;;;;5061955;28;20029;-79
2023/05/24 01:10:28;;;;;;;10.13;4.05;;;;;;;;;;5060042;28;20098;-79
2023/05/24 01:13:07;;;;;;;8.27;3.65;;;;;;;;;;5054404;28;20025;-80
2023/05/24 01:15:50;;;;;;;8.82;3.55;;;;;;;;;;5061611;28;20063;-80
2023/05/24 01:18:25;;;;;;;11.35;3.78;;;;;;;;;;5068755;28;20078;-80
2023/05/24 01:20:57;;;;;;;7.60;3.30;;;;;;;;;;5057858;28;20037;-79
2023/05/24 01:23:36;;;;;;;9.38;3.97;;;;;;;;;;5064556;28;20024;-79
2023/05/24 01:26:29;;;;;;;7.85;3.40;;;;;;;;;;5072936;28;20025;-80
2023/05/24 01:28:55;;;;;;;9.45;3.63;;;;;;;;;;5062755;28;20028;-79
2023/05/24 01:31:22;;;;;;;6.95;3.42;;;;;;;;;;5073786;28;20041;-79
2023/05/24 01:33:47;;;;;;;7.90;3.63;;;;;;;;;;5068541;28;20103;-80
2023/05/24 01:36:14;;;;;;;11.00;3.42;;;;;;;;;;5073398;28;20468;-80
2023/05/24 01:38:40;;;;;;;7.45;3.45;;;;;;;;;;5070515;28;20064;-80
2023/05/24 01:41:25;;;;;;;13.27;3.92;;;;;;;;;;5067271;28;20372;-79
2023/05/24 01:44:29;;;;;;;10.40;3.15;;;;;;;;;;5067534;28;20024;-79
2023/05/24 01:47:02;;;;;;;9.00;3.67;;;;;;;;;;5002225;28;20034;-80
2023/05/24 01:49:33;;;;;;;15.48;4.72;;;;;;;;;;5005911;28;20553;-79
2023/05/24 01:52:02;;;;;;;10.55;3.40;;;;;;;;;;5029188;28;20037;-80
2023/05/24 01:54:31;;;;;;;13.13;3.78;;;;;;;;;;5064818;28;20104;-79
2023/05/24 01:56:58;;;;;;;11.75;4.32;;;;;;;;;;5071189;28;20036;-81
2023/05/24 01:59:25;;;;;;;14.15;4.15;;;;;;;;;;5071285;28;20033;-80
2023/05/24 02:01:51;;;;;;;8.68;3.38;;;;;;;;;;5064328;28;20055;-79
2023/05/24 02:04:17;;;;;;;12.93;3.78;;;;;;;;;;5068475;28;20075;-80
2023/05/24 02:06:43;;;;;;;10.13;3.90;;;;;;;;;;5060009;28;20443;-80
2023/05/24 02:09:09;;;;;;;18.20;3.92;;;12.70;99.90;;;;;;5070954;28;20067;-80
2023/05/24 02:11:34;;;;;;;8.95;3.90;;;12.60;99.90;;;;;;5067455;28;20104;-80
2023/05/24 02:14:00;;;;;;;12.18;4.28;;;12.60;99.90;;;;;;5070397;28;20024;-80
2023/05/24 02:16:29;;;;;;;8.85;3.35;;;12.50;99.90;;;;;;5071386;28;20033;-81
2023/05/24 02:18:55;;;;;;;7.90;3.53;;;12.50;99.90;;;;;;5059007;28;20111;-80
2023/05/24 02:21:22;;;;;;;11.55;3.70;;;12.30;99.90;;;;;;5060998;28;20036;-78
2023/05/24 02:23:48;;;;;;;12.60;4.30;;;12.40;99.90;;;;;;5066312;28;20024;-78
2023/05/24 02:26:13;;;;;;;12.02;3.97;;;12.40;99.90;;;;;;5069029;28;20028;-79
2023/05/24 02:28:39;;;;;;;8.25;3.20;;;12.40;99.90;;;;;;5072229;28;20078;-80
2023/05/24 02:31:05;;;;;;;15.65;5.25;;;12.40;99.90;;;;;;5061956;28;20086;-80
2023/05/24 02:33:30;;;;;;;9.68;4.07;;;12.30;99.90;;;;;;5072699;28;20040;-80
2023/05/24 02:35:56;;;;;;;11.18;3.95;;;;;;;;;;5069805;28;20373;-79
2023/05/24 02:38:22;;;;;;;11.15;3.88;;;12.20;99.90;;;;;;5063298;28;20023;-80
2023/05/24 02:40:47;;;;;;;16.50;4.80;;;12.10;99.90;;;;;;5056737;28;20037;-80
2023/05/24 02:43:13;;;;;;;12.32;4.43;;;12.20;99.90;;;;;;5071614;28;20028;-81
2023/05/24 02:45:39;;;;;;;7.95;3.75;;;12.20;99.90;;;;;;5066644;28;20021;-80
2023/05/24 02:48:04;;;;;;;10.70;3.55;;;12.10;99.90;;;;;;5070869;28;20033;-79
2023/05/24 02:50:30;;;;;;;12.77;3.88;;;12.20;99.90;;;;;;5049388;28;20052;-79
2023/05/24 02:52:56;;;;;;;13.55;4.30;;;12.10;99.90;;;;;;5046666;28;20056;-78
2023/05/24 02:55:21;;;;;;;11.48;4.07;;;12.10;99.90;;;;;;5037781;28;20112;-78
2023/05/24 02:57:47;;;;;;;10.38;4.25;;;12.10;99.90;;;;;;5051002;28;20434;-79
2023/05/24 03:00:13;;;;;;;12.85;4.55;;;12.10;99.90;;;;;;5039121;28;20068;-78
2023/05/24 03:02:39;;;;;;;15.75;4.20;;;12.00;99.90;;;;;;5040243;28;20025;-79
2023/05/24 03:05:06;;;;;;;14.25;4.70;;;11.90;99.90;;;;;;5042322;28;20529;-78
2023/05/24 03:07:32;;;;;;;9.32;4.22;;;11.90;99.90;;;;;;5047300;28;20531;-79
2023/05/24 03:09:57;;;;;;;11.75;3.92;;;11.90;99.90;;;;;;5052344;28;20044;-79
2023/05/24 03:12:23;;;;;;;17.48;4.30;;;11.90;99.90;;;;;;5045427;28;20348;-80
2023/05/24 03:14:49;;;;;;;21.33;4.75;;;11.90;99.90;;;;;;5045075;28;20052;-80
2023/05/24 03:17:14;;;;;;;8.25;3.70;;;11.90;99.90;;;;;;5037103;28;20021;-80
2023/05/24 03:19:40;;;;;;;13.32;4.72;;;11.80;99.90;;;;;;5049942;28;20101;-80
2023/05/24 03:22:06;;;;;;;16.27;4.93;;;11.70;99.90;;;;;;5037723;28;20036;-79
2023/05/24 03:24:32;;;;;;;10.73;4.13;;;11.80;99.90;;;;;;5045944;28;20078;-80
2023/05/24 03:26:58;;;;;;;14.80;4.57;;;11.80;99.90;;;;;;5051030;28;20021;-79
2023/05/24 03:29:23;;;;;;;11.48;4.03;;;11.80;99.90;;;;;;5051067;28;20125;-79
2023/05/24 03:31:49;;;;;;;14.43;4.40;;;11.80;99.90;;;;;;5048809;28;20037;-76
2023/05/24 03:34:15;;;;;;;9.10;4.03;;;11.80;99.90;;;;;;5045620;28;20029;-81
2023/05/24 03:36:40;;;;;;;10.98;4.38;;;11.80;99.90;;;;;;5051171;28;20044;-80
2023/05/24 03:39:06;;;;;;;8.90;4.10;;;11.80;99.90;;;;;;5042497;28;20964;-80
2023/05/24 03:41:32;;;;;;;12.80;4.38;;;11.70;99.90;;;;;;5047073;28;20025;-80
2023/05/24 03:43:58;;;;;;;9.60;4.05;;;11.70;99.90;;;;;;5042513;28;20036;-80
2023/05/24 03:46:24;;;;;;;14.15;4.30;;;11.70;99.90;;;;;;5039396;28;20033;-80
2023/05/24 03:48:50;;;;;;;10.65;4.30;;;11.70;99.90;;;;;;5052365;28;20112;-80
2023/05/24 03:51:15;;;;;;;12.43;5.18;;;11.60;99.90;;;;;;5069553;28;20064;-79
2023/05/24 03:53:41;;;;;;;14.82;5.07;;;11.60;99.90;;;;;;5065784;28;20084;-80
2023/05/24 03:56:06;;;;;;;14.75;4.70;;;11.60;99.90;;;;;;5064893;28;20024;-80
2023/05/24 03:58:32;;;;;;;13.15;5.20;;;11.60;99.90;;;;;;5075400;28;20054;-80
2023/05/24 04:00:59;;;;;;;16.08;4.57;;;11.60;99.90;;;;;;5073417;28;20055;-79
2023/05/24 04:03:25;;;;;;;17.17;4.97;;;11.50;99.90;;;;;;5062836;28;20487;-79
2023/05/24 04:05:52;;;;;;;11.02;4.50;;;11.50;99.90;;;;;;5064991;28;20075;-80
2023/05/24 04:08:18;;;;;;;18.33;4.90;;;11.50;99.90;;;;;;5058103;28;20032;-79
2023/05/24 04:10:43;;;;;;;11.65;4.35;;;11.50;99.90;;;;;;5063372;28;20032;-80
2023/05/24 04:13:09;;;;;;;12.85;4.72;;;11.40;99.90;;;;;;5072751;28;20119;-78
2023/05/24 04:15:36;;;;;;;16.60;4.45;;;11.40;99.90;;;;;;5074999;28;20457;-79
2023/05/24 04:18:02;;;;;;;10.98;4.28;;;11.50;99.90;;;;;;5068201;28;20245;-78
2023/05/24 04:20:28;;;;;;;15.55;4.13;;;11.40;99.90;;;;;;5065523;28;20484;-79
2023/05/24 04:22:55;;;;;;;11.65;4.43;;;11.40;99.90;;;;;;5071690;28;20036;-79
2023/05/24 04:25:21;;;;;;;12.63;4.50;;;11.30;99.90;;;;;;5073344;28;20029;-79
2023/05/24 04:27:49;;;;;;;17.77;5.57;;;11.30;99.90;;;;;;5065082;28;20040;-79
2023/05/24 04:30:15;;;;;;;12.75;4.50;;;11.30;99.90;;;;;;5073849;28;20060;-79
2023/05/24 04:32:43;;;;;;;10.35;4.05;;;11.30;99.90;;;;;;5073557;28;20093;-82
2023/05/24 04:35:09;;;;;;;15.38;4.75;;;11.30;99.90;;;;;;5070863;28;20040;-81
2023/05/24 04:37:35;;;;;;;15.18;4.30;;;11.30;99.90;;;;;;5075219;28;20454;-79
2023/05/24 04:40:02;;;;;;;12.25;4.70;;;11.40;99.90;;;;;;5062434;28;20039;-79
2023/05/24 04:42:31;;;;;;;14.88;5.30;;;11.30;99.90;;;;;;5059413;28;20102;-78
2023/05/24 04:44:57;;;;;;;11.65;4.45;;;11.30;99.90;;;;;;5063559;28;20041;-79
2023/05/24 04:47:23;;;;;;;16.00;5.47;;;11.20;99.90;;;;;;5074444;28;20044;-78
2023/05/24 04:49:49;;;;;;;14.98;5.32;;;11.30;99.90;;;;;;5071121;28;20104;-78
2023/05/24 04:52:16;;;;;;;12.05;4.60;;;11.40;99.90;;;;;;5065111;28;20032;-78
2023/05/24 04:54:42;;;;;;;12.80;4.93;;;11.30;99.90;;;;;;5075423;28;20115;-78
2023/05/24 04:57:07;;;;;;;12.57;4.50;;;11.40;99.90;;;;;;5055929;28;20452;-79
2023/05/24 04:59:33;;;;;;;13.20;4.65;;;11.40;99.90;;;;;;5072961;28;20035;-81
2023/05/24 05:01:58;;;;;;;18.48;6.13;;;11.40;99.90;;;;;;5061091;28;20025;-80
2023/05/24 05:04:24;;;;;;;11.95;4.55;;;11.40;99.90;;;;;;5069473;28;20465;-78
2023/05/24 05:06:50;;;;;;;15.30;5.18;;;11.40;99.90;;;;;;5062372;28;20766;-78
2023/05/24 05:09:16;;;;;;;11.75;4.88;;;11.50;99.90;;;;;;5071702;28;20037;-78
2023/05/24 05:11:42;;;;;;;11.30;4.32;;;11.40;99.90;;;;;;5063980;28;20482;-79
2023/05/24 05:14:10;;;;;;;15.02;4.90;;;11.50;99.90;;;;;;5060045;28;20032;-71
2023/05/24 05:16:36;;;;;;;19.08;5.63;;;11.50;99.90;;;;;;5069732;28;20028;-70
2023/05/24 05:19:05;;;;;;;11.45;4.82;;;11.50;99.90;;;;;;5070260;28;20201;-75
2023/05/24 05:21:32;;;;;;;20.92;4.65;;;11.60;99.90;;;;;;5066409;28;20043;-74
2023/05/24 05:24:02;;;;;;;13.85;5.00;;;11.50;99.90;;;;;;5060410;28;20056;-73
2023/05/24 05:26:28;;;;;;;;;;;11.60;99.90;;;;;;5051187;28;20108;-78
2023/05/24 05:28:54;;;;;;;16.02;5.50;;;11.60;99.90;;;;;;5049541;28;20007;-72
2023/05/24 05:31:20;;;;;;;11.73;4.35;;;11.60;99.90;;;;;;5071726;28;20081;-72
2023/05/24 05:33:46;;;;;;;16.52;4.95;;;11.60;99.90;;;;;;5067957;28;20035;-74
2023/05/24 05:36:11;;;;;;;12.23;4.28;;;11.50;99.90;;;;;;5045042;28;20032;-72
2023/05/24 05:38:37;;;;;;;17.52;5.47;;;11.60;99.90;;;;;;5065217;28;20060;-81
2023/05/24 05:41:06;;;;;;;18.27;5.85;;;11.60;99.90;;;;;;5069032;28;20043;-79
2023/05/24 05:43:32;;;;;;;12.60;4.57;;;11.70;99.90;;;;;;5076178;28;20024;-79
2023/05/24 05:45:59;;;;;;;12.65;5.00;;;11.70;99.90;;;;;;5068918;28;20355;-79
2023/05/24 05:48:25;;;;;;;16.27;4.75;;;11.70;99.90;;;;;;5067132;28;20522;-77
2023/05/24 05:50:51;;;;;;;14.55;4.43;;;11.70;99.90;;;;;;5049839;28;20083;-78
2023/05/24 05:53:16;;;;;;;14.38;5.22;;;11.70;99.90;;;;;;5051891;28;20032;-79
2023/05/24 05:55:42;;;;;;;13.15;4.78;;;11.80;99.90;;;;;;5036051;28;20392;-79
2023/05/24 05:58:07;;;;;;;13.32;4.43;;;11.80;99.90;;;;;;5047734;28;20029;-77
2023/05/24 06:00:33;;;;;;;10.80;4.80;;;11.90;99.90;;;;;;5050018;28;20033;-77
2023/05/24 06:02:58;;;;;;;13.82;5.35;;;11.90;99.90;;;;;;5049776;28;20455;-76
2023/05/24 06:05:26;;;;;;;14.45;4.65;;;12.00;99.90;;;;;;5044911;28;20112;-76
2023/05/24 06:07:52;;;;;;;15.70;5.57;;;12.10;99.90;;;;;;5042480;28;20029;-76
2023/05/24 06:10:18;;;;;;;16.23;4.47;;;12.10;99.90;;;;;;5038527;28;20107;-75
2023/05/24 06:12:43;;;;;;;14.65;4.53;;;12.20;99.90;;;;;;5052411;28;20458;-75
2023/05/24 06:15:09;;;;;;;15.85;4.97;;;12.20;99.90;;;;;;5042718;28;20108;-75
2023/05/24 06:17:36;;;;;;;13.90;4.63;;;12.20;99.90;;;;;;5028171;28;20033;-75
2023/05/24 06:20:06;;;;;;;19.00;4.93;;;12.20;99.90;;;;;;5041609;28;20033;-75
2023/05/24 06:22:32;;;;;;;12.07;4.80;;;12.30;99.90;;;;;;5050203;28;20070;-76
2023/05/24 06:24:57;;;;;;;15.25;4.80;;;12.40;99.90;;;;;;5053404;28;20040;-75
2023/05/24 06:27:23;;;;;;;17.80;4.80;;;12.40;99.90;;;;;;5048352;28;20055;-75
2023/05/24 06:29:49;;;;;;;18.73;5.03;;;12.50;99.90;;;;;;5052994;28;20435;-75
2023/05/24 06:32:14;;;;;;;13.45;5.35;;;12.50;99.90;;;;;;5051683;28;20059;-76
2023/05/24 06:34:40;;;;;;;11.98;4.53;;;12.60;99.90;;;;;;5052172;28;20037;-75
2023/05/24 06:37:09;;;;;;;17.10;5.38;;;12.70;99.90;;;;;;5048970;28;20036;-75
2023/05/24 06:39:35;;;;;;;16.17;5.00;;;12.90;99.90;;;;;;5043237;28;20130;-75
2023/05/24 06:42:00;;;;;;;13.98;4.50;;;12.90;99.90;;;;;;5052197;28;20034;-75
2023/05/24 06:44:32;;;;;;;14.45;4.45;;;12.90;99.90;;;;;;5049404;28;20435;-75
2023/05/24 06:46:58;;;;;;;14.65;4.35;;;12.90;99.90;;;;;;5045471;28;20060;-75
2023/05/24 06:49:24;;;;;;;16.65;5.28;;;13.00;99.90;;;;;;5054615;28;20098;-75
2023/05/24 06:51:49;;;;;;;15.60;5.30;;;12.90;99.90;;;;;;5065515;28;20441;-75
2023/05/24 06:54:15;;;;;;;13.55;4.60;;;12.90;99.90;;;;;;5066708;28;20025;-75
2023/05/24 06:56:40;;;;;;;13.00;5.03;;;12.80;99.90;;;;;;5063360;28;20442;-75
2023/05/24 06:59:07;;;;;;;14.88;5.25;;;12.80;99.90;;;;;;5059033;28;20077;-75
2023/05/24 07:01:33;;;;;;;15.75;4.95;;;12.70;99.90;;;;;;5051693;28;20111;-75
2023/05/24 07:03:58;;;;;;;14.32;4.53;;;12.70;99.90;;;;;;5068952;28;20738;-75
2023/05/24 07:06:24;;;;;;;13.43;4.93;;;12.60;99.90;;;;;;5058095;28;20033;-75
2023/05/24 07:08:50;;;;;;;15.75;4.50;;;12.50;99.90;;;;;;5067199;28;20385;-74
2023/05/24 07:11:15;;;;;;;12.98;5.30;;;12.40;99.90;;;;;;5070890;28;20119;-75
2023/05/24 07:13:41;;;;;;;14.05;4.78;;;12.30;99.90;;;;;;5062661;28;20041;-75
2023/05/24 07:16:06;;;;;;;19.88;5.07;;;12.30;99.90;;;;;;5058646;28;20032;-75
2023/05/24 07:18:32;;;;;;;13.30;4.60;;;12.30;99.90;;;;;;5068852;28;20032;-75
2023/05/24 07:20:58;;;;;;;16.77;4.50;;;12.30;99.90;;;;;;5065676;28;20033;-75
2023/05/24 07:23:24;;;;;;;15.70;5.05;;;12.30;99.90;;;;;;5071316;28;20027;-75
2023/05/24 07:25:50;;;;;;;16.05;4.78;;;12.30;99.90;;;;;;5063516;28;20029;-75
2023/05/24 07:28:18;;;;;;;19.52;5.20;;;12.40;99.90;;;;;;5066789;28;20540;-75
2023/05/24 07:30:44;;;;;;;16.80;5.18;;;12.50;99.90;;;;;;5061710;28;20037;-75
2023/05/24 07:33:11;;;;;;;14.98;4.97;;;12.40;99.90;;;;;;5054910;28;20078;-75
2023/05/24 07:35:37;;;;;;;12.15;4.93;;;12.50;99.90;;;;;;5068256;28;20016;-76
2023/05/24 07:38:03;;;;;;;11.32;4.47;;;12.60;99.90;;;;;;5050587;28;20612;-76
2023/05/24 07:40:28;;;;;;;21.83;5.38;;;12.60;99.90;;;;;;5060652;28;20032;-76
2023/05/24 07:42:54;;;;;;;16.83;5.07;;;12.70;99.90;;;;;;5066144;28;20507;-76
2023/05/24 07:45:19;;;;;;;14.50;4.63;;;12.70;99.90;;;;;;5067278;28;20033;-76
2023/05/24 07:47:45;;;;;;;15.95;4.78;;;12.80;99.90;;;;;;5062761;28;20036;-76
2023/05/24 07:50:11;;;;;;;12.90;5.03;;;12.90;99.90;;;;;;5069311;28;20056;-76
2023/05/24 07:52:37;;;;;;;19.67;5.38;;;13.00;99.90;;;;;;5064039;28;20029;-76
2023/05/24 07:55:04;;;;;;;13.23;4.78;;;13.10;99.90;;;;;;5068160;28;20627;-76
2023/05/24 07:57:29;;;;;;;17.05;4.53;;;13.30;99.90;;;;;;5063737;28;20111;-76
2023/05/24 07:59:55;;;;;;;20.33;4.88;;;13.30;99.90;;;;;;5058339;28;20041;-76
2023/05/24 08:02:21;;;;;;;14.32;5.03;;;13.30;99.90;;;;;;5046482;28;20535;-76
2023/05/24 08:04:47;;;;;;;18.38;5.05;;;13.30;99.90;;;;;;5069233;28;20056;-76
2023/05/24 08:07:13;;;;;;;13.57;4.88;;;13.30;99.90;;;;;;5060301;28;20021;-76
2023/05/24 08:09:39;;;;;;;17.33;4.45;;;13.50;99.90;;;;;;5060013;28;20049;-76
2023/05/24 08:12:05;;;;;;;14.13;5.30;;;13.50;99.90;;;;;;5066509;28;20025;-77
2023/05/24 08:14:31;;;;;;;12.80;4.80;;;13.60;99.90;;;;;;5068082;28;20067;-76
2023/05/24 08:16:59;;;;;;;15.52;4.47;;;13.60;99.90;;;;;;5067230;28;20028;-76
2023/05/24 08:19:26;;;;;;;17.70;4.80;;;13.60;99.90;;;;;;5061218;28;20028;-75
2023/05/24 08:21:52;;;;;;;18.80;5.03;;;13.60;99.90;;;;;;5058388;28;20139;-75
2023/05/24 08:24:18;;;;;;;16.38;4.40;;;13.60;99.90;;;;;;5064135;28;20025;-75
2023/05/24 08:26:44;;;;;;;17.23;4.97;;;13.60;99.90;;;;;;5064294;28;20115;-76
2023/05/24 08:29:10;;;;;;;17.60;5.13;;;13.50;99.90;;;;;;5056766;28;20116;-75
2023/05/24 08:31:37;;;;;;;19.45;5.45;;;13.40;99.90;;;;;;5052148;28;20025;-75
2023/05/24 08:34:03;;;;;;;16.45;4.80;;;13.20;99.90;;;;;;5051009;28;20803;-75
2023/05/24 08:36:28;;;;;;;14.35;4.45;;;13.20;99.90;;;;;;5067348;28;20086;-76
2023/05/24 08:38:54;;;;;;;23.50;5.22;;;13.20;99.90;;;;;;5062523;28;20719;-75
2023/05/24 08:41:20;;;;;;;14.18;5.15;;;13.40;99.90;;;;;;5065613;28;20082;-75
2023/05/24 08:43:46;;;;;;;14.32;4.72;;;13.50;99.90;;;;;;5064795;28;20115;-75
2023/05/24 08:46:14;;;;;;;18.75;5.47;;;13.50;99.90;;;;;;5062230;28;20043;-76
2023/05/24 08:48:47;;;;;;;19.13;4.80;;;13.50;99.90;;;;;;5065604;28;20064;-75
2023/05/24 08:51:14;;;;;;;21.63;5.30;;;13.60;99.90;;;;;;5070543;28;20047;-75
2023/05/24 08:53:47;;;;;;;17.38;4.72;;;13.60;99.90;;;;;;5052226;28;20029;-76
2023/05/24 08:56:16;;;;;;;20.10;4.93;;;13.70;99.90;;;;;;5066992;28;20025;-75
2023/05/24 08:58:42;;;;;;;15.68;4.45;;;13.90;99.90;;;;;;5069478;28;20031;-75
2023/05/24 09:01:09;;;;;;;17.30;4.65;;;13.90;99.90;;;;;;5053961;28;20033;-75
2023/05/24 09:03:36;;;;;;;15.85;4.63;;;14.00;99.90;;;;;;5061836;28;20054;-75
2023/05/24 09:06:03;;;;;;;15.70;4.40;;;13.90;99.90;;;;;;5072740;28;20043;-75
2023/05/24 09:08:29;;;;;;;12.48;4.63;;;13.90;99.90;;;;;;5069885;28;20039;-75
2023/05/24 09:10:55;;;;;;;13.80;4.88;;;13.80;99.90;;;;;;5062238;28;20028;-75
2023/05/24 09:13:22;;;;;;;14.60;5.18;;;13.80;99.90;;;;;;5047332;28;20450;-75
2023/05/24 09:15:48;;;;;;;21.83;5.45;;;13.60;99.90;;;;;;5072637;28;20103;-76
2023/05/24 09:18:14;;;;;;;17.05;5.43;;;13.50;99.90;;;;;;5054447;28;20175;-75
2023/05/24 09:20:39;;;;;;;13.52;5.38;;;13.50;99.90;;;;;;5073830;28;20048;-76
2023/05/24 09:23:07;;;;;;;21.33;4.90;;;13.50;99.90;;;;;;5075372;28;20025;-75
2023/05/24 09:25:33;;;;;;;18.98;5.30;;;13.50;99.90;;;;;;5064434;28;20119;-75
2023/05/24 09:28:05;;;;;;;21.75;6.10;;;13.50;99.90;;;;;;5073413;28;20087;-75
2023/05/24 09:30:30;;;;;;;19.80;4.85;;;13.40;99.90;;;;;;5064670;28;20037;-75
2023/05/24 09:32:57;;;;;;;15.18;5.97;;;13.30;99.90;;;;;;5069872;28;20042;-75
2023/05/24 09:35:25;;;;;;;14.77;5.55;;;13.30;99.90;;;;;;5070078;28;20054;-75
2023/05/24 09:37:54;;;;;;;15.18;5.50;;;13.40;99.90;;;;;;5071262;28;20060;-75
2023/05/24 09:40:20;;;;;;;32.40;6.03;;;13.40;99.90;;;;;;5072453;28;20107;-75
2023/05/24 09:42:46;;;;;;;24.92;5.20;;;13.40;99.90;;;;;;5058098;28;20036;-75
2023/05/24 09:45:12;;;;;;;22.17;5.90;;;13.50;99.90;;;;;;5072042;28;20037;-74
2023/05/24 09:47:41;;;;;;;15.65;5.07;;;13.70;99.90;;;;;;5066170;28;20032;-76
2023/05/24 09:50:16;;;;;;;22.45;4.72;;;13.70;99.90;;;;;;5071247;28;20032;-75
2023/05/24 09:52:42;;;;;;;18.20;5.10;;;13.80;99.90;;;;;;5071233;28;20094;-75
2023/05/24 09:55:16;;;;;;;18.48;5.15;;;13.80;99.90;;;;;;5064023;28;20105;-75
2023/05/24 09:57:49;;;;;;;23.75;7.00;;;13.70;99.90;;;;;;5060791;28;20055;-75
2023/05/24 10:00:21;;;;;;;17.70;4.60;;;13.50;99.90;;;;;;5071799;28;20474;-76
2023/05/24 10:03:10;;;;;;;13.38;5.00;;;13.40;99.90;;;;;;5053099;28;20052;-76
2023/05/24 10:05:36;;;;;;;13.23;5.13;;;13.40;99.90;;;;;;5071394;28;20032;-76
2023/05/24 10:08:05;;;;;;;15.93;5.22;;;13.30;99.90;;;;;;5066877;28;20040;-75
2023/05/24 10:10:32;;;;;;;17.58;5.10;;;13.30;99.90;;;;;;5065335;28;20040;-74
2023/05/24 10:13:00;;;;;;;18.55;5.38;;;13.20;99.90;;;;;;5068563;28;20021;-73
2023/05/24 10:15:26;;;;;;;17.75;5.70;;;13.10;99.90;;;;;;5052066;28;20024;-74
2023/05/24 10:17:53;;;;;;;19.08;5.90;;;12.90;99.90;;;;;;5056539;28;20036;-74
2023/05/24 10:20:18;;;;;;;14.32;4.78;;;12.90;99.90;;;;;;5066470;28;20078;-75
2023/05/24 10:22:46;;;;;;;12.68;4.47;;;12.80;99.90;;;;;;5060331;28;20108;-75
2023/05/24 10:25:33;;;;;;;14.45;5.40;;;12.80;99.90;;;;;;5054548;28;20069;-74
2023/05/24 10:28:06;;;;;;;13.65;5.32;;;12.80;99.90;;;;;;5066498;28;20025;-74
2023/05/24 10:30:46;;;;;;;19.67;5.97;;;12.80;99.90;;;;;;5058469;28;20186;-74
2023/05/24 10:33:13;;;;;;;14.85;4.93;;;12.80;99.90;;;;;;5049998;28;20028;-75
2023/05/24 10:35:40;;;;;;;18.42;5.65;;;12.70;99.90;;;;;;5068973;28;20060;-74
2023/05/24 10:38:06;;;;;;;18.55;5.13;;;12.80;99.90;;;;;;5066165;28;20028;-75
2023/05/24 10:40:32;;;;;;;18.42;5.75;;;12.90;99.90;;;;;;5050430;28;20077;-75
2023/05/24 10:43:02;;;;;;;18.77;5.30;;;12.90;99.90;;;;;;5062155;28;20474;-74
2023/05/24 10:45:34;;;;;;;16.80;5.47;;;12.90;99.90;;;;;;5058175;28;20051;-74
2023/05/24 10:48:07;;;;;;;14.48;5.35;;;13.00;99.90;;;;;;5060179;28;21052;-74
2023/05/24 10:50:33;;;;;;;13.93;4.97;;;13.20;99.90;;;;;;5067370;28;20488;-75
2023/05/24 10:53:26;;;;;;;19.35;5.47;;;13.30;99.90;;;;;;5046444;28;20048;-76
2023/05/24 10:55:59;;;;;;;20.45;5.38;;;13.50;99.90;;;;;;5062806;28;20040;-75
2023/05/24 10:58:50;;;;;;;14.60;4.85;;;13.60;99.90;;;;;;5060653;28;20033;-73
2023/05/24 11:01:28;;;;;;;19.02;5.68;;;13.70;99.90;;;;;;5064873;28;20474;-74
2023/05/24 11:04:13;;;;;;;17.63;4.53;;;13.80;99.90;;;;;;5062927;28;20546;-73
2023/05/24 11:06:54;;;;;;;13.20;4.30;;;14.00;99.90;;;;;;5064170;28;20441;-73
2023/05/24 11:09:20;;;;;;;15.50;4.82;;;14.20;99.90;;;;;;5062778;28;20036;-76
2023/05/24 11:11:49;;;;;;;14.02;4.85;;;14.40;99.90;;;;;;5062755;28;20117;-83
2023/05/24 11:14:23;;;;;;;17.73;5.97;;;14.50;99.90;;;;;;5050778;28;20385;-78
2023/05/24 11:16:50;;;;;;;24.15;5.75;;;14.60;99.90;;;;;;5057802;28;20017;-78
2023/05/24 11:19:16;;;;;;;18.52;5.40;;;14.80;99.90;;;;;;5065239;28;20017;-79
2023/05/24 11:21:46;;;;;;;15.57;4.80;;;14.80;99.90;;;;;;5056243;28;20496;-81
2023/05/24 11:24:12;;;;;;;14.70;4.82;;;14.90;99.90;;;;;;5042619;28;20393;-80
2023/05/24 11:26:38;;;;;;;14.60;5.35;;;15.10;99.90;;;;;;5066326;28;20096;-79
2023/05/24 11:29:05;;;;;;;17.83;5.38;;;15.20;99.90;;;;;;5059625;28;20017;-79
2023/05/24 11:31:30;;;;;;;19.73;5.78;;;15.30;99.90;;;;;;5072046;28;20207;-80
2023/05/24 11:33:56;;;;;;;15.88;4.53;;;15.40;99.90;;;;;;5070685;28;20056;-80
2023/05/24 11:36:22;;;;;;;12.25;4.53;;;15.40;99.90;;;;;;5066945;28;20043;-79
2023/05/24 11:38:48;;;;;;;15.95;4.18;;;15.20;99.90;;;;;;5068179;28;20367;-80
2023/05/24 11:41:15;;;;;;;11.63;3.80;;;15.20;99.30;;;;;;5067987;28;20032;-79
2023/05/24 11:43:41;;;;;;;15.55;4.75;;;15.10;99.40;;;;;;5040986;28;20037;-79
2023/05/24 11:46:07;;;;;;;13.35;3.92;;;15.10;99.90;;;;;;5068049;28;20108;-79
2023/05/24 11:48:33;;;;;;;16.40;4.63;;;15.20;99.90;;;;;;5060341;28;20027;-78
2023/05/24 11:50:59;;;;;;;18.67;4.57;;;15.40;99.80;;;;;;5071546;28;20029;-80
2023/05/24 11:53:24;;;;;;;21.52;4.70;;;15.50;99.60;;;;;;5047958;28;20025;-79
2023/05/24 11:55:53;;;;;;;12.98;4.43;;;15.70;99.80;;;;;;5066805;28;20028;-78
2023/05/24 11:58:22;;;;;;;19.75;5.00;;;16.00;98.10;;;;;;5080725;28;20033;-81
2023/05/24 12:00:49;;;;;;;11.93;4.10;;;15.90;97.20;;;;;;5079845;28;20024;-79
2023/05/24 12:03:15;;;;;;;15.65;5.03;;;16.00;96.70;;;;;;5082160;28;20020;-69
2023/05/24 12:05:41;;;;;;;14.80;4.70;;;16.20;97.40;;;;;;5066195;28;20025;-69
2023/05/24 12:08:11;;;;;;;14.10;4.70;;;16.40;97.30;;;;;;5067573;28;20813;-69
2023/05/24 12:10:38;;;;;;;13.73;4.47;;;16.60;96.80;;;;;;5070137;28;20039;-69
2023/05/24 12:13:06;;;;;;;12.25;4.57;;;16.50;96.10;;;;;;5066111;28;20025;-69
2023/05/24 12:15:32;;;;;;;13.35;3.70;;;16.50;95.90;;;;;;5063134;28;20040;-68
2023/05/24 12:17:58;;;;;;;8.98;3.67;;;16.60;96.00;;;;;;5061909;28;20033;-69
2023/05/24 12:20:26;;;;;;;11.60;4.32;;;16.80;95.40;;;;;;5068566;28;20047;-69
2023/05/24 12:22:54;;;;;;;11.57;3.72;;;17.00;94.00;;;;;;5073123;28;20040;-68
2023/05/24 12:25:21;;;;;;;15.18;4.72;;;17.40;93.10;;;;;;5071031;28;20052;-68
2023/05/24 12:27:56;;;;;;;11.70;3.78;;;17.30;93.00;;;;;;5068974;28;20111;-71
2023/05/24 12:30:27;;;;;;;10.32;3.92;;;17.70;92.70;;;;;;5050265;28;20432;-68
2023/05/24 12:32:53;;;;;;;15.13;4.40;;;18.10;91.70;;;;;;5062792;28;20137;-69
2023/05/24 12:35:20;;;;;;;7.28;3.35;;;18.30;91.20;;;;;;5077090;28;20099;-69
2023/05/24 12:37:47;;;;;;;11.98;3.58;;;18.50;91.70;;;;;;5064773;28;20074;-70
2023/05/24 12:40:22;;;;;;;14.35;3.50;;;18.30;88.40;;;;;;5071731;28;20062;-69
2023/05/24 12:42:55;;;;;;;14.65;4.05;;;18.50;90.10;;;;;;5058546;28;20091;-70
2023/05/24 12:45:23;;;;;;;11.10;3.80;;;18.80;90.20;;;;;;5048023;28;20032;-70
2023/05/24 12:47:50;;;;;;;10.95;3.00;;;19.20;90.40;;;;;;5066750;28;20029;-71
2023/05/24 12:50:19;;;;;;;16.10;3.78;;;19.30;89.70;;;;;;5066743;28;20128;-69
2023/05/24 12:52:46;;;;;;;12.60;4.40;;;19.00;85.60;;;;;;5064626;28;20110;-70
2023/05/24 12:55:15;;;;;;;12.10;3.60;;;18.80;86.50;;;;;;5066001;28;20064;-69
2023/05/24 12:57:42;;;;;;;15.98;3.70;;;18.90;86.10;;;;;;5066251;28;20120;-69